createdAt,value
2019-05-22T00:01:25.668Z,25.97
2019-05-22T00:03:59.394Z,23.80
2019-05-22T00:06:39.764Z,29.37
2019-05-22T00:09:23.218Z,22.40
2019-05-22T00:11:56.155Z,21.13
2019-05-22T00:14:30.676Z,19.50
2019-05-22T00:17:03.196Z,21.87
2019-05-22T00:19:34.248Z,22.37
2019-05-22T00:22:11.738Z,22.97
2019-05-22T00:24:46.115Z,23.00
2019-05-22T00:27:19.874Z,23.73
2019-05-22T00:29:53.254Z,25.40
2019-05-22T00:32:27.536Z,25.57
2019-05-22T00:34:59.011Z,21.17
2019-05-22T00:37:31.483Z,19.80
2019-05-22T00:40:05.346Z,22.27
2019-05-22T00:42:38.334Z,23.43
2019-05-22T00:45:13.071Z,23.30
2019-05-22T00:47:45.533Z,22.30
2019-05-22T00:50:21.515Z,22.03
2019-05-22T00:53:10.083Z,20.53
2019-05-22T00:56:00.492Z,22.57
2019-05-22T00:58:36.288Z,22.93
2019-05-22T01:01:32.804Z,21.17
2019-05-22T01:04:07.654Z,20.40
2019-05-22T01:06:39.041Z,19.67
2019-05-22T01:09:17.962Z,20.50
2019-05-22T01:11:49.044Z,22.37
2019-05-22T01:14:21.408Z,20.63
2019-05-22T01:16:52.546Z,18.77
2019-05-22T01:19:25.074Z,41.80
2019-05-22T01:21:56.632Z,25.87
2019-05-22T01:24:28.731Z,25.57
2019-05-22T01:27:00.105Z,24.50
2019-05-22T01:29:33.149Z,23.53
2019-05-22T01:32:17.250Z,26.07
2019-05-22T01:34:48.839Z,34.47
2019-05-22T01:37:21.083Z,22.60
2019-05-22T01:39:58.813Z,21.73
2019-05-22T01:42:40.014Z,21.87
2019-05-22T01:45:14.140Z,21.43
2019-05-22T01:48:00.407Z,23.30
2019-05-22T01:50:53.804Z,23.57
2019-05-22T01:53:33.000Z,24.30
2019-05-22T01:56:08.342Z,25.03
2019-05-22T01:58:42.687Z,21.40
2019-05-22T02:01:21.061Z,22.50
2019-05-22T02:03:54.959Z,22.63
2019-05-22T02:06:28.723Z,22.50
2019-05-22T02:09:21.232Z,22.30
2019-05-22T02:11:57.327Z,23.60
2019-05-22T02:14:30.121Z,24.90
2019-05-22T02:17:01.401Z,28.97
2019-05-22T02:19:33.253Z,22.07
2019-05-22T02:22:05.268Z,36.43
2019-05-22T02:24:39.565Z,34.17
2019-05-22T02:27:12.706Z,54.97
2019-05-22T02:29:44.986Z,26.10
2019-05-22T02:32:18.109Z,24.40
2019-05-22T02:34:49.281Z,24.53
2019-05-22T02:37:22.216Z,23.17
2019-05-22T02:39:56.060Z,22.27
2019-05-22T02:42:33.321Z,21.60
2019-05-22T02:45:05.367Z,21.37
2019-05-22T02:47:38.436Z,21.30
2019-05-22T02:50:10.946Z,24.47
2019-05-22T02:52:43.059Z,28.83
2019-05-22T02:55:15.959Z,26.43
2019-05-22T02:57:47.070Z,22.83
2019-05-22T03:00:20.080Z,26.57
2019-05-22T03:02:53.917Z,23.50
2019-05-22T03:05:27.032Z,22.63
2019-05-22T03:07:59.520Z,65.07
2019-05-22T03:10:30.725Z,19.53
2019-05-22T03:13:04.470Z,20.53
2019-05-22T03:15:35.748Z,21.50
2019-05-22T03:18:08.899Z,23.97
2019-05-22T03:20:42.057Z,22.30
2019-05-22T03:23:36.608Z,21.67
2019-05-22T03:26:10.774Z,21.17
2019-05-22T03:28:42.263Z,21.03
2019-05-22T03:31:14.003Z,27.03
2019-05-22T03:33:45.774Z,21.97
2019-05-22T03:36:21.464Z,27.13
2019-05-22T03:38:53.400Z,25.73
2019-05-22T03:41:25.422Z,24.77
2019-05-22T03:43:58.632Z,24.60
2019-05-22T03:46:43.744Z,24.73
2019-05-22T03:49:29.696Z,23.10
2019-05-22T03:51:52.832Z,22.70
2019-05-22T03:54:26.041Z,23.97
2019-05-22T03:56:57.199Z,26.70
2019-05-22T03:59:29.020Z,22.67
2019-05-22T04:02:00.797Z,26.00
2019-05-22T04:04:39.203Z,24.13
2019-05-22T04:07:17.380Z,21.57
2019-05-22T04:09:51.995Z,20.83
2019-05-22T04:12:24.953Z,19.57
2019-05-22T04:14:56.665Z,23.77
2019-05-22T04:17:28.978Z,25.93
2019-05-22T04:20:00.398Z,25.57
2019-05-22T04:22:31.363Z,22.87
2019-05-22T04:25:02.155Z,20.73
2019-05-22T04:27:33.683Z,22.37
2019-05-22T04:30:08.757Z,24.37
2019-05-22T04:32:42.918Z,16.33
2019-05-22T04:35:17.997Z,23.10
2019-05-22T04:37:50.887Z,17.07
2019-05-22T04:40:58.276Z,19.43
2019-05-22T04:43:34.408Z,20.93
2019-05-22T04:46:10.405Z,18.07
2019-05-22T04:48:45.812Z,15.97
2019-05-22T04:51:31.202Z,18.03
2019-05-22T04:54:02.280Z,18.10
2019-05-22T04:56:35.157Z,18.60
2019-05-22T04:59:07.046Z,18.27
2019-05-22T05:01:38.934Z,16.10
2019-05-22T05:04:10.960Z,16.63
2019-05-22T05:06:55.491Z,16.13
2019-05-22T05:09:26.933Z,14.33
2019-05-22T05:11:59.230Z,15.80
2019-05-22T05:14:34.693Z,14.00
2019-05-22T05:17:07.608Z,13.77
2019-05-22T05:19:39.747Z,14.10
2019-05-22T05:22:12.294Z,12.37
2019-05-22T05:24:43.685Z,16.70
2019-05-22T05:27:14.919Z,14.03
2019-05-22T05:29:53.262Z,12.53
2019-05-22T05:32:24.771Z,12.40
2019-05-22T05:35:05.711Z,13.87
2019-05-22T05:37:38.577Z,15.13
2019-05-22T05:40:36.657Z,13.37
2019-05-22T05:43:10.300Z,12.57
2019-05-22T05:45:43.533Z,13.83
2019-05-22T05:48:24.114Z,14.83
2019-05-22T05:51:29.291Z,13.43
2019-05-22T05:54:08.969Z,12.07
2019-05-22T05:56:41.037Z,11.97
2019-05-22T05:59:14.168Z,11.37
2019-05-22T06:01:53.324Z,15.37
2019-05-22T06:04:38.309Z,11.67
2019-05-22T06:07:23.350Z,14.07
2019-05-22T06:10:41.074Z,11.90
2019-05-22T06:13:15.166Z,13.00
2019-05-22T06:16:29.381Z,12.90
2019-05-22T06:19:01.156Z,10.97
2019-05-22T06:21:34.127Z,11.93
2019-05-22T06:24:25.583Z,10.10
2019-05-22T06:27:41.711Z,13.87
2019-05-22T06:30:18.395Z,12.77
2019-05-22T06:33:29.765Z,11.47
2019-05-22T06:36:05.177Z,12.93
2019-05-22T06:39:10.123Z,13.80
2019-05-22T06:41:43.218Z,10.33
2019-05-22T06:44:41.916Z,14.37
2019-05-22T06:47:26.777Z,9.47
2019-05-22T06:49:59.514Z,12.60
2019-05-22T06:52:31.354Z,10.30
2019-05-22T06:55:02.931Z,9.50
2019-05-22T06:57:35.134Z,11.07
2019-05-22T07:00:22.225Z,8.57
2019-05-22T07:02:53.926Z,12.03
2019-05-22T07:05:26.158Z,8.57
2019-05-22T07:07:58.327Z,10.40
2019-05-22T07:10:30.647Z,10.70
2019-05-22T07:13:03.919Z,10.03
2019-05-22T07:15:54.091Z,12.53
2019-05-22T07:18:29.119Z,8.30
2019-05-22T07:21:00.357Z,8.30
2019-05-22T07:23:33.141Z,10.00
2019-05-22T07:26:06.257Z,8.60
2019-05-22T07:28:38.074Z,10.57
2019-05-22T07:31:09.738Z,9.73
2019-05-22T07:33:41.214Z,8.30
2019-05-22T07:36:17.114Z,7.30
2019-05-22T07:38:48.368Z,8.63
2019-05-22T07:41:21.399Z,7.83
2019-05-22T07:43:52.953Z,16.13
2019-05-22T07:46:24.304Z,14.33
2019-05-22T07:48:55.216Z,9.17
2019-05-22T07:51:27.288Z,8.07
2019-05-22T07:53:59.641Z,8.30
2019-05-22T07:56:31.347Z,8.50
2019-05-22T07:59:02.569Z,7.03
2019-05-22T08:01:34.899Z,7.77
2019-05-22T08:04:07.672Z,7.87
2019-05-22T08:06:41.733Z,8.10
2019-05-22T08:09:14.568Z,20.43
2019-05-22T08:11:47.253Z,7.40
2019-05-22T08:14:19.633Z,13.43
2019-05-22T08:16:50.980Z,9.53
2019-05-22T08:19:24.366Z,9.87
2019-05-22T08:22:06.985Z,7.87
2019-05-22T08:24:30.296Z,7.30
2019-05-22T08:27:02.098Z,8.13
2019-05-22T08:29:34.046Z,8.47
2019-05-22T08:32:07.177Z,8.00
2019-05-22T08:34:40.200Z,8.27
2019-05-22T08:37:14.581Z,9.33
2019-05-22T08:39:47.252Z,7.70
2019-05-22T08:42:20.404Z,8.07
2019-05-22T08:44:52.441Z,8.07
2019-05-22T08:47:24.773Z,10.03
2019-05-22T08:49:56.556Z,9.30
2019-05-22T08:52:30.821Z,9.17
2019-05-22T08:55:04.914Z,7.07
2019-05-22T08:57:37.437Z,8.60
2019-05-22T09:00:12.541Z,8.73
2019-05-22T09:02:45.162Z,8.83
2019-05-22T09:05:20.994Z,8.87
2019-05-22T09:07:50.322Z,7.03
2019-05-22T09:10:25.995Z,7.57
2019-05-22T09:12:56.410Z,8.23
2019-05-22T09:15:29.527Z,8.40
2019-05-22T09:18:01.500Z,6.30
2019-05-22T09:20:48.080Z,10.57
2019-05-22T09:23:09.170Z,8.03
2019-05-22T09:25:41.405Z,8.33
2019-05-22T09:28:13.670Z,7.60
2019-05-22T09:30:45.432Z,9.07
2019-05-22T09:33:18.882Z,10.83
2019-05-22T09:35:51.084Z,14.27
2019-05-22T09:38:22.745Z,10.87
2019-05-22T09:40:55.591Z,10.60
2019-05-22T09:43:27.451Z,6.23
2019-05-22T09:45:58.616Z,9.00
2019-05-22T09:48:30.331Z,8.87
2019-05-22T09:51:02.311Z,10.30
2019-05-22T09:53:35.994Z,10.57
2019-05-22T09:56:08.773Z,7.43
2019-05-22T09:58:41.152Z,7.83
2019-05-22T10:01:14.354Z,8.37
2019-05-22T10:03:46.745Z,14.50
2019-05-22T10:06:21.596Z,11.30
2019-05-22T10:08:53.263Z,38.77
2019-05-22T10:11:25.724Z,10.13
2019-05-22T10:13:57.462Z,7.90
2019-05-22T10:16:29.360Z,9.43
2019-05-22T10:19:01.304Z,7.03
2019-05-22T10:21:33.806Z,8.53
2019-05-22T10:24:06.007Z,6.17
2019-05-22T10:26:37.798Z,6.80
2019-05-22T10:29:09.638Z,7.03
2019-05-22T10:31:42.206Z,6.47
2019-05-22T10:34:14.303Z,7.93
2019-05-22T10:36:46.780Z,8.70
2019-05-22T10:39:19.155Z,7.40
2019-05-22T10:41:50.833Z,5.73
2019-05-22T10:44:22.583Z,8.57
2019-05-22T10:46:54.442Z,5.97
2019-05-22T10:49:26.180Z,9.70
2019-05-22T10:51:57.780Z,7.47
2019-05-22T10:54:29.508Z,8.43
2019-05-22T10:57:01.079Z,8.20
2019-05-22T10:59:32.056Z,7.20
2019-05-22T11:02:03.568Z,11.80
2019-05-22T11:04:35.683Z,10.03
2019-05-22T11:07:08.130Z,10.47
2019-05-22T11:09:40.489Z,9.77
2019-05-22T11:12:12.544Z,7.00
2019-05-22T11:14:46.974Z,13.37
2019-05-22T11:17:18.760Z,5.40
2019-05-22T11:19:49.827Z,7.47
2019-05-22T11:22:21.247Z,6.27
2019-05-22T11:24:52.231Z,6.07
2019-05-22T11:27:25.391Z,6.47
2019-05-22T11:29:56.126Z,7.93
2019-05-22T11:32:27.342Z,5.50
2019-05-22T11:34:58.230Z,6.10
2019-05-22T11:37:29.472Z,6.50
2019-05-22T11:40:00.862Z,5.20
2019-05-22T11:42:32.161Z,6.40
2019-05-22T11:45:03.391Z,4.57
2019-05-22T11:47:34.605Z,9.27
2019-05-22T11:50:06.228Z,4.93
2019-05-22T11:52:37.380Z,8.73
2019-05-22T11:55:09.673Z,4.63
2019-05-22T11:57:41.989Z,4.00
2019-05-22T12:00:14.264Z,2.83
2019-05-22T12:02:46.457Z,14.40
2019-05-22T12:05:19.050Z,4.23
2019-05-22T12:07:50.381Z,4.40
2019-05-22T12:10:22.281Z,2.90
2019-05-22T12:12:54.003Z,4.60
2019-05-22T12:15:27.334Z,4.70
2019-05-22T12:17:59.113Z,4.87
2019-05-22T12:20:30.898Z,2.87
2019-05-22T12:23:02.342Z,3.90
2019-05-22T12:25:33.390Z,4.20
2019-05-22T12:28:05.274Z,8.23
2019-05-22T12:30:36.606Z,4.10
2019-05-22T12:33:13.532Z,3.10
2019-05-22T12:35:43.623Z,3.63
2019-05-22T12:38:15.132Z,4.10
2019-05-22T12:40:46.672Z,9.63
2019-05-22T12:43:18.276Z,3.07
2019-05-22T12:45:49.523Z,5.97
2019-05-22T12:48:20.727Z,4.20
2019-05-22T12:50:52.402Z,4.33
2019-05-22T12:53:24.815Z,4.27
2019-05-22T12:55:56.105Z,3.83
2019-05-22T12:58:27.047Z,3.37
2019-05-22T13:00:58.676Z,3.30
2019-05-22T13:03:30.570Z,2.80
2019-05-22T13:06:02.050Z,3.20
2019-05-22T13:08:34.585Z,3.40
2019-05-22T13:11:06.013Z,2.70
2019-05-22T13:13:39.263Z,2.67
2019-05-22T13:16:11.464Z,4.00
2019-05-22T13:18:46.957Z,18.70
2019-05-22T13:21:22.613Z,4.20
2019-05-22T13:23:55.830Z,4.23
2019-05-22T13:26:26.917Z,2.23
2019-05-22T13:28:57.939Z,4.43
2019-05-22T13:31:29.700Z,3.53
2019-05-22T13:34:01.318Z,2.10
2019-05-22T13:36:33.711Z,2.53
2019-05-22T13:39:08.203Z,3.93
2019-05-22T13:41:40.112Z,3.60
2019-05-22T13:44:13.593Z,6.27
2019-05-22T13:46:48.479Z,2.97
2019-05-22T13:49:20.063Z,3.97
2019-05-22T13:51:51.046Z,11.50
2019-05-22T13:54:24.849Z,3.23
2019-05-22T13:56:58.291Z,2.90
2019-05-22T13:59:30.447Z,5.53
2019-05-22T14:02:01.710Z,4.80
2019-05-22T14:04:34.603Z,6.00
2019-05-22T14:07:06.377Z,3.97
2019-05-22T14:09:38.724Z,3.73
2019-05-22T14:12:11.374Z,5.57
2019-05-22T14:14:43.060Z,3.10
2019-05-22T14:17:14.094Z,4.33
2019-05-22T14:19:47.253Z,3.00
2019-05-22T14:22:19.044Z,6.10
2019-05-22T14:24:49.919Z,7.30
2019-05-22T14:27:20.994Z,2.80
2019-05-22T14:29:53.095Z,5.77
2019-05-22T14:32:29.940Z,4.80
2019-05-22T14:34:58.477Z,7.50
2019-05-22T14:37:32.098Z,3.87
2019-05-22T14:40:06.355Z,2.77
2019-05-22T14:42:38.636Z,24.93
2019-05-22T14:45:10.723Z,3.90
2019-05-22T14:47:42.037Z,5.67
2019-05-22T14:50:14.371Z,3.43
2019-05-22T14:52:45.608Z,3.57
2019-05-22T14:55:17.705Z,3.37
2019-05-22T14:57:49.871Z,5.30
2019-05-22T15:00:25.242Z,2.80
2019-05-22T15:02:58.775Z,4.20
2019-05-22T15:05:29.666Z,7.40
2019-05-22T15:08:00.645Z,15.47
2019-05-22T15:10:32.184Z,4.73
2019-05-22T15:13:03.933Z,4.10
2019-05-22T15:15:40.171Z,6.37
2019-05-22T15:18:08.560Z,3.93
2019-05-22T15:20:47.183Z,4.43
2019-05-22T15:23:19.638Z,4.30
2019-05-22T15:25:54.571Z,4.73
2019-05-22T15:28:27.831Z,5.57
2019-05-22T15:30:58.939Z,4.57
2019-05-22T15:33:30.677Z,7.30
2019-05-22T15:36:09.424Z,8.90
2019-05-22T15:38:43.994Z,5.67
2019-05-22T15:41:15.623Z,7.07
2019-05-22T15:44:12.246Z,4.17
2019-05-22T15:47:53.340Z,5.00
2019-05-22T15:50:46.454Z,9.13
2019-05-22T15:53:38.086Z,10.23
2019-05-22T15:56:39.570Z,5.33
2019-05-22T15:59:41.538Z,12.37
2019-05-22T16:02:44.936Z,5.97
2019-05-22T16:05:18.219Z,5.93
2019-05-22T16:07:50.398Z,6.00
2019-05-22T16:10:25.734Z,5.97
2019-05-22T16:12:57.447Z,11.70
2019-05-22T16:15:30.832Z,10.07
2019-05-22T16:18:11.449Z,5.93
2019-05-22T16:20:39.810Z,7.37
2019-05-22T16:23:11.545Z,6.40
2019-05-22T16:25:43.160Z,5.70
2019-05-22T16:28:15.221Z,11.00
2019-05-22T16:30:48.503Z,5.60
2019-05-22T16:33:20.475Z,11.47
2019-05-22T16:35:52.037Z,5.77
2019-05-22T16:38:25.667Z,6.17
2019-05-22T16:40:57.052Z,7.10
2019-05-22T16:43:47.350Z,8.57
2019-05-22T16:46:02.885Z,4.93
2019-05-22T16:48:36.764Z,5.57
2019-05-22T16:51:10.056Z,8.57
2019-05-22T16:53:40.921Z,7.63
2019-05-22T16:56:12.995Z,6.73
2019-05-22T16:58:44.143Z,6.13
2019-05-22T17:01:16.776Z,6.90
2019-05-22T17:03:51.742Z,6.40
2019-05-22T17:06:23.675Z,6.53
2019-05-22T17:08:59.589Z,5.97
2019-05-22T17:11:32.010Z,5.90
2019-05-22T17:14:06.942Z,5.90
2019-05-22T17:16:41.308Z,9.17
2019-05-22T17:19:26.474Z,6.53
2019-05-22T17:21:46.178Z,6.07
2019-05-22T17:24:18.090Z,8.23
2019-05-22T17:26:51.229Z,8.37
2019-05-22T17:29:22.415Z,6.43
2019-05-22T17:31:54.528Z,6.73
2019-05-22T17:34:35.459Z,6.63
2019-05-22T17:37:13.750Z,7.13
2019-05-22T17:39:48.539Z,14.93
2019-05-22T17:42:23.597Z,9.27
2019-05-22T17:44:56.022Z,8.63
2019-05-22T17:47:30.943Z,9.70
2019-05-22T17:50:03.358Z,9.13
2019-05-22T17:52:34.904Z,7.87
2019-05-22T17:55:08.598Z,5.60
2019-05-22T17:57:40.446Z,6.67
2019-05-22T18:00:18.823Z,6.53
2019-05-22T18:02:49.956Z,9.17
2019-05-22T18:05:21.630Z,10.23
2019-05-22T18:07:52.577Z,9.77
2019-05-22T18:10:24.139Z,7.10
2019-05-22T18:12:55.533Z,6.60
2019-05-22T18:15:26.890Z,6.53
2019-05-22T18:17:59.880Z,9.67
2019-05-22T18:21:04.160Z,15.40
2019-05-22T18:37:14.061Z,19.13
2019-05-22T18:39:45.054Z,17.90
2019-05-22T18:42:16.558Z,16.80
2019-05-22T18:44:47.501Z,21.80
2019-05-22T18:47:18.518Z,15.70
2019-05-22T18:49:49.389Z,16.87
2019-05-22T18:52:20.697Z,30.63
2019-05-22T18:54:51.897Z,27.67
2019-05-22T18:57:22.948Z,34.37
2019-05-22T19:00:00.220Z,32.70
2019-05-22T19:02:26.757Z,29.17
2019-05-22T19:04:57.614Z,25.23
2019-05-22T19:07:28.398Z,16.10
2019-05-22T19:09:59.308Z,32.27
2019-05-22T19:12:31.322Z,26.37
2019-05-22T19:15:02.368Z,28.90
2019-05-22T19:17:33.956Z,23.37
2019-05-22T19:20:05.714Z,24.70
2019-05-22T19:22:37.248Z,19.93
2019-05-22T19:25:08.603Z,18.40
2019-05-22T19:27:39.611Z,13.03
2019-05-22T19:30:12.110Z,10.10
2019-05-22T19:32:43.301Z,18.33
2019-05-22T19:35:14.840Z,14.60
2019-05-22T19:37:47.060Z,15.10
2019-05-22T19:40:19.953Z,17.63
2019-05-22T19:42:51.751Z,19.60
2019-05-22T19:45:23.753Z,18.00
2019-05-22T19:47:57.170Z,17.30
2019-05-22T19:50:29.488Z,18.67
2019-05-22T19:53:17.592Z,16.60
2019-05-22T19:55:35.242Z,21.60
2019-05-22T19:58:09.820Z,21.10
2019-05-22T20:00:42.461Z,23.23
2019-05-22T20:03:17.510Z,21.57
2019-05-22T20:05:48.775Z,18.73
2019-05-22T20:08:19.976Z,18.63
2019-05-22T20:10:51.624Z,22.20
2019-05-22T20:13:24.945Z,22.30
2019-05-22T20:15:55.980Z,20.67
2019-05-22T20:18:27.015Z,21.13
2019-05-22T20:20:58.569Z,22.23
2019-05-22T20:23:35.933Z,21.43
2019-05-22T20:26:03.593Z,21.13
2019-05-22T20:28:43.161Z,20.30
2019-05-22T20:31:14.538Z,20.80
2019-05-22T20:33:45.551Z,20.90
2019-05-22T20:36:17.273Z,21.73
2019-05-22T20:38:51.549Z,21.43
2019-05-22T20:41:22.626Z,23.37
2019-05-22T20:43:54.134Z,22.70
2019-05-22T20:46:25.420Z,29.97
2019-05-22T20:48:57.401Z,23.63
2019-05-22T20:51:28.327Z,24.23
2019-05-22T20:54:00.278Z,23.30
2019-05-22T20:56:32.126Z,28.20
2019-05-22T20:59:03.649Z,27.73
2019-05-22T21:01:34.912Z,26.20
2019-05-22T21:04:11.216Z,27.87
2019-05-22T21:06:49.117Z,32.37
2019-05-22T21:09:20.643Z,35.13
2019-05-22T21:11:51.916Z,36.47
2019-05-22T21:14:24.289Z,37.83
2019-05-22T21:16:55.935Z,39.60
2019-05-22T21:19:28.611Z,47.07
2019-05-22T21:21:59.647Z,42.73
2019-05-22T21:24:30.507Z,34.23
2019-05-22T21:27:01.740Z,37.37
2019-05-22T21:29:33.449Z,39.37
2019-05-22T21:32:06.333Z,39.60
2019-05-22T21:34:38.221Z,37.50
2019-05-22T21:37:10.181Z,42.97
2019-05-22T21:39:42.264Z,38.00
2019-05-22T21:42:13.363Z,37.63
2019-05-22T21:44:44.567Z,38.63
2019-05-22T21:47:16.752Z,40.97
2019-05-22T21:49:48.073Z,41.70
2019-05-22T21:52:19.771Z,42.80
2019-05-22T21:54:50.659Z,42.97
2019-05-22T21:57:21.859Z,44.87
2019-05-22T21:59:53.890Z,48.07
2019-05-22T22:02:33.163Z,40.83
2019-05-22T22:05:05.195Z,39.80
2019-05-22T22:07:36.656Z,39.87
2019-05-22T22:10:08.179Z,42.73
2019-05-22T22:12:39.797Z,35.20
2019-05-22T22:15:12.523Z,42.70
2019-05-22T22:17:45.858Z,39.40
2019-05-22T22:20:18.954Z,40.47
2019-05-22T22:22:51.600Z,42.23
2019-05-22T22:25:24.043Z,50.00
2019-05-22T22:27:55.355Z,51.43
2019-05-22T22:30:34.832Z,51.93
2019-05-22T22:33:10.265Z,49.27
2019-05-22T22:35:41.523Z,47.50
2019-05-22T22:38:12.929Z,55.03
2019-05-22T22:40:44.099Z,62.07
2019-05-22T22:43:15.636Z,49.77
2019-05-22T22:46:05.825Z,49.73
2019-05-22T22:48:39.693Z,48.37
2019-05-22T22:51:13.107Z,61.93
2019-05-22T22:53:45.905Z,70.60
2019-05-22T22:56:19.476Z,61.00
2019-05-22T22:58:50.494Z,63.40
2019-05-22T23:01:27.547Z,49.70
2019-05-22T23:04:01.314Z,46.97
2019-05-22T23:06:36.055Z,51.77
2019-05-22T23:09:08.475Z,52.83
2019-05-22T23:11:43.515Z,49.13
2019-05-22T23:14:15.635Z,55.83
2019-05-22T23:16:47.107Z,63.70
2019-05-22T23:19:38.743Z,54.70
2019-05-22T23:22:12.876Z,54.23
2019-05-22T23:24:44.568Z,53.43
2019-05-22T23:27:17.096Z,63.83
2019-05-22T23:29:49.426Z,62.30
2019-05-22T23:32:21.392Z,57.00
2019-05-22T23:34:52.341Z,63.63
2019-05-22T23:37:24.383Z,59.03
2019-05-22T23:39:56.146Z,54.80
2019-05-22T23:42:34.556Z,53.30
2019-05-22T23:45:10.622Z,54.77
2019-05-22T23:47:53.528Z,45.00
2019-05-22T23:50:25.496Z,43.73
2019-05-22T23:52:57.038Z,38.00
2019-05-22T23:55:29.673Z,38.83
2019-05-22T23:58:05.316Z,39.40
